createdAt,value
2023-01-25T00:00:28.900Z,0.6
2023-01-25T00:03:32.043Z,0.5
2023-01-25T00:06:28.858Z,0.5
2023-01-25T00:09:28.344Z,0.5
2023-01-25T00:12:28.917Z,0.5
2023-01-25T00:15:31.159Z,0.5
2023-01-25T00:18:28.692Z,0.5
2023-01-25T00:21:28.869Z,0.5
2023-01-25T00:24:31.618Z,0.4
2023-01-25T00:27:29.047Z,0.4
2023-01-25T00:30:29.445Z,0.4
2023-01-25T00:33:31.593Z,0.4
2023-01-25T00:36:29.255Z,0.4
2023-01-25T00:39:28.742Z,0.4
2023-01-25T00:42:31.921Z,0.4
2023-01-25T00:45:28.591Z,0.4
2023-01-25T00:48:28.921Z,0.4
2023-01-25T00:51:29.127Z,0.4
2023-01-25T00:54:31.414Z,0.3
2023-01-25T00:57:28.709Z,0.3
2023-01-25T01:00:38.546Z,0.3
2023-01-25T01:03:31.422Z,0.3
2023-01-25T01:06:28.360Z,0.3
2023-01-25T01:09:29.348Z,0.3
2023-01-25T01:12:31.737Z,0.3
2023-01-25T01:15:29.506Z,0.3
2023-01-25T01:18:28.778Z,0.3
2023-01-25T01:21:31.809Z,0.3
2023-01-25T01:24:29.534Z,0.3
2023-01-25T01:27:28.805Z,0.3
2023-01-25T01:30:36.712Z,0.3
2023-01-25T01:33:38.957Z,0.2
2023-01-25T01:36:29.440Z,0.2
2023-01-25T01:39:32.462Z,0.2
2023-01-25T01:42:31.354Z,0.2
2023-01-25T01:45:28.781Z,0.2
2023-01-25T01:48:29.190Z,0.2
2023-01-25T01:51:31.199Z,0.2
2023-01-25T01:54:28.719Z,0.2
2023-01-25T01:57:28.985Z,0.2
2023-01-25T02:00:31.925Z,0.2
2023-01-25T02:03:28.531Z,0.2
2023-01-25T02:06:28.423Z,0.2
2023-01-25T02:09:28.494Z,0.2
2023-01-25T02:12:30.837Z,0.2
2023-01-25T02:15:28.503Z,0.2
2023-01-25T02:18:28.898Z,0.2
2023-01-25T02:21:31.855Z,0.1
2023-01-25T02:24:28.492Z,0.1
2023-01-25T02:27:28.530Z,0.1
2023-01-25T02:30:31.515Z,0.1
2023-01-25T02:33:28.944Z,0.1
2023-01-25T02:36:29.353Z,0.1
2023-01-25T02:39:31.322Z,0
2023-01-25T02:42:29.036Z,0
2023-01-25T02:45:28.800Z,0
2023-01-25T02:48:29.284Z,0
2023-01-25T02:51:31.329Z,-0.1
2023-01-25T02:54:28.795Z,-0.1
2023-01-25T02:57:29.142Z,-0.1
2023-01-25T03:00:30.941Z,-0.1
2023-01-25T03:03:28.965Z,-0.1
2023-01-25T03:06:29.295Z,-0.1
2023-01-25T03:09:31.440Z,-0.2
2023-01-25T03:12:28.960Z,-0.2
2023-01-25T03:15:28.480Z,-0.2
2023-01-25T03:18:31.842Z,-0.3
2023-01-25T03:21:29.298Z,-0.3
2023-01-25T03:24:28.787Z,-0.3
2023-01-25T03:27:28.389Z,-0.3
2023-01-25T03:30:31.399Z,-0.3
2023-01-25T03:33:28.796Z,-0.3
2023-01-25T03:36:29.589Z,-0.3
2023-01-25T03:39:31.636Z,-0.4
2023-01-25T03:42:29.269Z,-0.4
2023-01-25T03:45:28.619Z,-0.4
2023-01-25T03:48:31.224Z,-0.5
2023-01-25T03:51:28.798Z,-0.5
2023-01-25T03:54:29.083Z,-0.5
2023-01-25T03:57:30.838Z,-0.5
2023-01-25T04:00:29.194Z,-0.5
2023-01-25T04:03:31.510Z,-0.5
2023-01-25T04:06:29.689Z,-0.5
2023-01-25T04:09:31.615Z,-0.5
2023-01-25T04:12:29.207Z,-0.5
2023-01-25T04:15:28.564Z,-0.5
2023-01-25T04:18:31.712Z,-0.5
2023-01-25T04:21:29.191Z,-0.5
2023-01-25T04:24:28.607Z,-0.5
2023-01-25T04:27:31.665Z,-0.6
2023-01-25T04:30:29.188Z,-0.6
2023-01-25T04:33:28.495Z,-0.6
2023-01-25T04:36:31.455Z,-0.6
2023-01-25T04:39:28.670Z,-0.6
2023-01-25T04:42:29.027Z,-0.6
2023-01-25T04:45:28.345Z,-0.6
2023-01-25T04:48:31.065Z,-0.6
2023-01-25T04:51:28.573Z,-0.6
2023-01-25T04:54:28.753Z,-0.6
2023-01-25T04:57:31.698Z,-0.6
2023-01-25T05:00:29.461Z,-0.6
2023-01-25T05:03:29.003Z,-0.6
2023-01-25T05:06:31.847Z,-0.7
2023-01-25T05:09:29.218Z,-0.7
2023-01-25T05:12:28.540Z,-0.7
2023-01-25T05:15:31.489Z,-0.7
2023-01-25T05:18:48.495Z,-0.7
2023-01-25T05:21:28.712Z,-0.7
2023-01-25T05:24:29.262Z,-0.7
2023-01-25T05:27:31.165Z,-0.7
2023-01-25T05:30:29.379Z,-0.7
2023-01-25T05:33:29.032Z,-0.7
2023-01-25T05:36:31.221Z,-0.8
2023-01-25T05:39:29.466Z,-0.8
2023-01-25T05:42:28.879Z,-0.8
2023-01-25T05:45:31.751Z,-0.8
2023-01-25T05:48:28.975Z,-0.8
2023-01-25T05:51:28.951Z,-0.8
2023-01-25T05:54:31.461Z,-0.9
2023-01-25T05:57:28.617Z,-0.9
2023-01-25T06:00:29.209Z,-0.9
2023-01-25T06:03:30.185Z,-0.9
2023-01-25T06:06:31.769Z,-0.9
2023-01-25T06:09:28.737Z,-0.9
2023-01-25T06:12:30.510Z,-0.9
2023-01-25T06:15:31.704Z,-0.9
2023-01-25T06:18:31.726Z,-0.9
2023-01-25T06:21:29.523Z,-0.9
2023-01-25T06:24:31.911Z,-1
2023-01-25T06:27:28.658Z,-1
2023-01-25T06:30:29.557Z,-1
2023-01-25T06:33:31.025Z,-1
2023-01-25T06:36:28.883Z,-1
2023-01-25T06:39:29.583Z,-1
2023-01-25T06:42:32.008Z,-1.1
2023-01-25T06:45:28.732Z,-1.1
2023-01-25T06:48:29.376Z,-1.1
2023-01-25T06:51:29.241Z,-1.1
2023-01-25T06:54:35.987Z,-1.1
2023-01-25T06:57:28.456Z,-1.1
2023-01-25T07:00:29.158Z,-1.1
2023-01-25T07:03:31.539Z,-1.2
2023-01-25T07:06:28.862Z,-1.2
2023-01-25T07:09:29.258Z,-1.2
2023-01-25T07:12:31.482Z,-1.2
2023-01-25T07:15:29.512Z,-1.2
2023-01-25T07:18:29.241Z,-1.2
2023-01-25T07:21:31.247Z,-1.2
2023-01-25T07:24:29.036Z,-1.2
2023-01-25T07:27:28.871Z,-1.2
2023-01-25T07:30:29.310Z,-1.2
2023-01-25T07:33:31.757Z,-1.2
2023-01-25T07:36:28.385Z,-1.2
2023-01-25T07:42:33.576Z,-1.2
2023-01-25T07:45:29.192Z,-1.2
2023-01-25T07:48:29.022Z,-1.2
2023-01-25T07:51:31.218Z,-1.2
2023-01-25T07:54:29.012Z,-1.2
2023-01-25T07:57:28.571Z,-1.2
2023-01-25T08:00:31.174Z,-1.2
2023-01-25T08:07:12.038Z,-1.2
2023-01-25T08:09:28.665Z,-1.2
2023-01-25T08:12:31.665Z,-1.2
2023-01-25T08:15:29.420Z,-1.2
2023-01-25T08:18:28.861Z,-1.2
2023-01-25T08:21:31.898Z,-1.2
2023-01-25T08:24:28.792Z,-1.2
2023-01-25T08:27:28.673Z,-1.2
2023-01-25T08:30:31.960Z,-1.2
2023-01-25T08:33:28.704Z,-1.2
2023-01-25T08:36:28.895Z,-1.2
2023-01-25T08:39:31.959Z,-1.2
2023-01-25T08:42:28.719Z,-1.2
2023-01-25T08:45:28.917Z,-1.2
2023-01-25T08:48:29.594Z,-1.2
2023-01-25T08:51:31.821Z,-1.2
2023-01-25T08:54:28.929Z,-1.2
2023-01-25T08:57:28.895Z,-1.2
2023-01-25T09:00:31.870Z,-1.2
2023-01-25T09:03:29.888Z,-1.2
2023-01-25T09:06:28.456Z,-1.2
2023-01-25T09:09:31.778Z,-1.2
2023-01-25T09:12:28.732Z,-1.2
2023-01-25T09:15:28.716Z,-1.2
2023-01-25T09:18:31.285Z,-1.2
2023-01-25T09:21:29.157Z,-1.2
2023-01-25T09:24:29.553Z,-1.2
2023-01-25T09:27:29.337Z,-1.2
2023-01-25T09:31:14.649Z,-1.2
2023-01-25T09:33:28.443Z,-1.2
2023-01-25T09:36:29.172Z,-1.2
2023-01-25T09:39:31.082Z,-1.2
2023-01-25T09:42:29.219Z,-1.2
2023-01-25T09:45:28.951Z,-1.2
2023-01-25T09:48:30.889Z,-1.1
2023-01-25T09:51:28.527Z,-1.1
2023-01-25T09:54:47.345Z,-1.1
2023-01-25T09:57:31.762Z,-1.1
2023-01-25T10:00:28.564Z,-1.1
2023-01-25T10:03:28.667Z,-1.1
2023-01-25T10:06:30.760Z,-1.1
2023-01-25T10:09:31.996Z,-1.1
2023-01-25T10:12:28.535Z,-1.1
2023-01-25T10:15:29.211Z,-1.1
2023-01-25T10:18:31.233Z,-1.1
2023-01-25T10:21:29.008Z,-1.1
2023-01-25T10:24:28.849Z,-1.1
2023-01-25T10:27:31.262Z,-1.1
2023-01-25T10:30:29.429Z,-1.1
2023-01-25T10:33:29.016Z,-1.1
2023-01-25T10:36:31.115Z,-1.1
2023-01-25T10:39:28.985Z,-1.1
2023-01-25T10:42:28.691Z,-1.1
2023-01-25T10:45:29.087Z,-1.1
2023-01-25T10:48:32.838Z,-1.1
2023-01-25T10:51:29.530Z,-1.1
2023-01-25T10:54:30.631Z,-1.1
2023-01-25T10:57:32.122Z,-1
2023-01-25T11:00:31.143Z,-1
2023-01-25T11:03:28.588Z,-1
2023-01-25T11:06:32.537Z,-1
2023-01-25T11:09:28.741Z,-1
2023-01-25T11:12:29.189Z,-1
2023-01-25T11:15:31.183Z,-1
2023-01-25T11:18:29.201Z,-1
2023-01-25T11:21:28.990Z,-1
2023-01-25T11:24:29.741Z,-1
2023-01-25T11:27:31.016Z,-1
2023-01-25T11:30:28.565Z,-1
2023-01-25T11:33:29.109Z,-1
2023-01-25T11:36:31.336Z,-0.9
2023-01-25T11:39:28.732Z,-0.9
2023-01-25T11:42:28.649Z,-0.9
2023-01-25T11:45:31.210Z,-0.9
2023-01-25T11:48:28.887Z,-0.9
2023-01-25T11:51:29.570Z,-0.9
2023-01-25T11:54:31.724Z,-0.9
2023-01-25T11:57:28.615Z,-0.9
2023-01-25T12:00:44.907Z,-0.9
2023-01-25T12:03:29.878Z,-0.9
2023-01-25T12:06:31.392Z,-0.9
2023-01-25T12:09:29.361Z,-0.9
2023-01-25T12:12:28.893Z,-0.9
2023-01-25T12:15:31.338Z,-0.8
2023-01-25T12:18:29.107Z,-0.8
2023-01-25T12:21:32.155Z,-0.8
2023-01-25T12:24:31.187Z,-0.8
2023-01-25T12:27:28.422Z,-0.8
2023-01-25T12:30:29.110Z,-0.8
2023-01-25T12:33:31.314Z,-0.7
2023-01-25T12:36:28.777Z,-0.7
2023-01-25T12:39:28.629Z,-0.7
2023-01-25T12:42:29.323Z,-0.7
2023-01-25T12:45:31.669Z,-0.7
2023-01-25T12:48:28.956Z,-0.7
2023-01-25T12:51:29.409Z,-0.7
2023-01-25T12:54:32.893Z,-0.7
2023-01-25T12:57:28.706Z,-0.7
2023-01-25T13:00:33.364Z,-0.7
2023-01-25T13:03:31.081Z,-0.7
2023-01-25T13:06:28.765Z,-0.7
2023-01-25T13:09:29.424Z,-0.7
2023-01-25T13:12:31.448Z,-0.7
2023-01-25T13:15:29.136Z,-0.7
2023-01-25T13:18:28.808Z,-0.7
2023-01-25T13:21:29.588Z,-0.7
2023-01-25T13:24:31.516Z,-0.7
2023-01-25T13:27:29.061Z,-0.7
2023-01-25T13:30:28.574Z,-0.7
2023-01-25T13:33:31.809Z,-0.8
2023-01-25T13:36:29.600Z,-0.8
2023-01-25T13:39:29.029Z,-0.8
2023-01-25T13:42:31.307Z,-0.8
2023-01-25T13:45:29.245Z,-0.8
2023-01-25T13:48:28.884Z,-0.8
2023-01-25T13:51:32.197Z,-0.8
2023-01-25T13:54:28.856Z,-0.8
2023-01-25T13:57:28.631Z,-0.8
2023-01-25T14:00:29.138Z,-0.8
2023-01-25T14:03:31.184Z,-0.8
2023-01-25T14:06:28.815Z,-0.8
2023-01-25T14:09:29.124Z,-0.8
2023-01-25T14:12:30.985Z,-0.9
2023-01-25T14:15:29.292Z,-0.9
2023-01-25T14:18:28.579Z,-0.9
2023-01-25T14:21:31.446Z,-0.9
2023-01-25T14:24:29.196Z,-0.9
2023-01-25T14:27:28.599Z,-0.9
2023-01-25T14:30:32.053Z,-0.9
2023-01-25T14:33:29.116Z,-0.9
2023-01-25T14:36:28.701Z,-0.9
2023-01-25T14:39:29.289Z,-0.9
2023-01-25T14:42:31.443Z,-0.9
2023-01-25T14:45:28.854Z,-0.9
2023-01-25T14:48:29.184Z,-0.9
2023-01-25T14:51:31.234Z,-0.9
2023-01-25T14:54:28.943Z,-0.9
2023-01-25T14:57:29.084Z,-0.9
2023-01-25T15:04:09.994Z,-0.9
2023-01-25T15:06:29.178Z,-0.9
2023-01-25T15:09:31.341Z,-1
2023-01-25T15:12:29.464Z,-1
2023-01-25T15:15:29.332Z,-1
2023-01-25T15:18:28.852Z,-1
2023-01-25T15:21:31.015Z,-1
2023-01-25T15:24:29.271Z,-1
2023-01-25T15:27:29.408Z,-1
2023-01-25T15:30:47.350Z,-1
2023-01-25T15:33:29.355Z,-1
2023-01-25T15:36:29.397Z,-1
2023-01-25T15:39:31.772Z,-1.1
2023-01-25T15:42:28.535Z,-1.1
2023-01-25T15:45:30.936Z,-1.1
2023-01-25T15:48:31.881Z,-1.1
2023-01-25T15:51:29.397Z,-1.1
2023-01-25T15:54:28.852Z,-1.1
2023-01-25T15:57:31.293Z,-1.1
2023-01-25T16:00:29.354Z,-1.1
2023-01-25T16:03:28.961Z,-1.1
2023-01-25T16:06:28.819Z,-1.1
2023-01-25T16:09:31.018Z,-1.2
2023-01-25T16:12:28.627Z,-1.2
2023-01-25T16:15:29.451Z,-1.2
2023-01-25T16:18:31.729Z,-1.2
2023-01-25T16:21:29.385Z,-1.2
2023-01-25T16:24:29.213Z,-1.2
2023-01-25T16:27:31.330Z,-1.2
2023-01-25T16:30:28.864Z,-1.2
2023-01-25T16:33:28.473Z,-1.2
2023-01-25T16:36:31.817Z,-1.2
2023-01-25T16:39:28.776Z,-1.2
2023-01-25T16:42:29.097Z,-1.2
2023-01-25T16:45:28.820Z,-1.2
2023-01-25T16:48:31.867Z,-1.2
2023-01-25T16:51:28.633Z,-1.2
2023-01-25T16:54:28.805Z,-1.2
2023-01-25T16:57:31.472Z,-1.2
2023-01-25T17:01:05.540Z,-1.2
2023-01-25T17:03:29.185Z,-1.2
2023-01-25T17:06:31.300Z,-1.2
2023-01-25T17:09:28.702Z,-1.2
2023-01-25T17:12:30.424Z,-1.2
2023-01-25T17:15:31.653Z,-1.2
2023-01-25T17:18:29.197Z,-1.2
2023-01-25T17:21:28.877Z,-1.2
2023-01-25T17:24:28.535Z,-1.2
2023-01-25T17:27:31.523Z,-1.2
2023-01-25T17:30:30.274Z,-1.2
2023-01-25T17:33:28.876Z,-1.2
2023-01-25T17:36:30.975Z,-1.2
2023-01-25T17:39:28.471Z,-1.2
2023-01-25T17:42:28.931Z,-1.2
2023-01-25T17:45:30.975Z,-1.3
2023-01-25T17:48:28.477Z,-1.3
2023-01-25T17:51:28.985Z,-1.3
2023-01-25T17:54:31.879Z,-1.3
2023-01-25T17:57:29.105Z,-1.3
2023-01-25T18:16:17.376Z,-1.3
2023-01-25T18:18:28.907Z,-1.3
2023-01-25T18:21:28.347Z,-1.3
2023-01-25T18:24:31.603Z,-1.4
2023-01-25T18:27:29.238Z,-1.4
2023-01-25T18:30:29.215Z,-1.4
2023-01-25T18:33:31.757Z,-1.4
2023-01-25T18:36:28.557Z,-1.4
2023-01-25T18:39:28.642Z,-1.4
2023-01-25T18:42:28.866Z,-1.4
2023-01-25T18:45:31.447Z,-1.4
2023-01-25T18:48:29.824Z,-1.4
2023-01-25T18:51:29.017Z,-1.4
2023-01-25T18:54:31.668Z,-1.4
2023-01-25T18:57:29.650Z,-1.4
2023-01-25T19:00:36.423Z,-1.4
2023-01-25T19:03:32.319Z,-1.5
2023-01-25T19:06:29.644Z,-1.5
2023-01-25T19:09:28.735Z,-1.5
2023-01-25T19:12:31.180Z,-1.5
2023-01-25T19:15:29.647Z,-1.5
2023-01-25T19:18:28.986Z,-1.5
2023-01-25T19:21:29.527Z,-1.5
2023-01-25T19:24:31.561Z,-1.5
2023-01-25T19:27:29.122Z,-1.5
2023-01-25T19:30:43.176Z,-1.5
2023-01-25T19:33:31.199Z,-1.5
2023-01-25T19:36:28.458Z,-1.5
2023-01-25T19:39:28.793Z,-1.5
2023-01-25T19:42:31.593Z,-1.5
2023-01-25T19:45:28.784Z,-1.5
2023-01-25T19:48:28.744Z,-1.5
2023-01-25T19:51:31.247Z,-1.6
2023-01-25T19:54:28.429Z,-1.6
2023-01-25T19:57:28.845Z,-1.6
2023-01-25T20:00:29.215Z,-1.6
2023-01-25T20:03:31.663Z,-1.6
2023-01-25T20:06:29.025Z,-1.6
2023-01-25T20:09:29.037Z,-1.6
2023-01-25T20:12:30.983Z,-1.6
2023-01-25T20:15:29.357Z,-1.6
2023-01-25T20:18:28.426Z,-1.6
2023-01-25T20:21:31.015Z,-1.6
2023-01-25T20:24:29.315Z,-1.6
2023-01-25T20:27:28.498Z,-1.6
2023-01-25T20:30:31.147Z,-1.6
2023-01-25T20:33:28.494Z,-1.6
2023-01-25T20:36:28.478Z,-1.6
2023-01-25T20:39:28.513Z,-1.6
2023-01-25T20:42:30.971Z,-1.6
2023-01-25T20:45:28.485Z,-1.6
2023-01-25T20:48:28.817Z,-1.6
2023-01-25T20:51:31.418Z,-1.6
2023-01-25T20:54:28.632Z,-1.6
2023-01-25T20:57:28.819Z,-1.6
2023-01-25T21:00:31.588Z,-1.6
2023-01-25T21:03:30.396Z,-1.6
2023-01-25T21:06:29.385Z,-1.6
2023-01-25T21:09:31.080Z,-1.6
2023-01-25T21:12:29.313Z,-1.6
2023-01-25T21:15:29.248Z,-1.6
2023-01-25T21:18:29.111Z,-1.6
2023-01-25T21:21:31.217Z,-1.6
2023-01-25T21:24:29.011Z,-1.6
2023-01-25T21:27:28.312Z,-1.6
2023-01-25T21:30:30.988Z,-1.6
2023-01-25T21:33:28.565Z,-1.6
2023-01-25T21:36:28.761Z,-1.6
2023-01-25T21:39:31.533Z,-1.6
2023-01-25T21:42:32.375Z,-1.6
2023-01-25T21:45:28.782Z,-1.6
2023-01-25T21:48:37.793Z,-1.6
2023-01-25T21:51:29.228Z,-1.6
2023-01-25T21:54:28.982Z,-1.6
2023-01-25T21:57:28.996Z,-1.6
2023-01-25T22:00:40.092Z,-1.6
2023-01-25T22:03:29.158Z,-1.6
2023-01-25T22:06:29.421Z,-1.6
2023-01-25T22:09:31.798Z,-1.6
2023-01-25T22:12:29.102Z,-1.6
2023-01-25T22:15:29.267Z,-1.6
2023-01-25T22:18:31.162Z,-1.6
2023-01-25T22:21:29.358Z,-1.6
2023-01-25T22:24:29.385Z,-1.6
2023-01-25T22:27:31.104Z,-1.6
2023-01-25T22:30:34.213Z,-1.6
2023-01-25T22:33:29.234Z,-1.6
2023-01-25T22:36:29.214Z,-1.6
2023-01-25T22:39:30.877Z,-1.6
2023-01-25T22:42:28.483Z,-1.6
2023-01-25T22:45:28.622Z,-1.6
2023-01-25T22:48:31.380Z,-1.6
2023-01-25T22:51:29.206Z,-1.6
2023-01-25T22:54:28.996Z,-1.6
2023-01-25T22:57:31.779Z,-1.6
2023-01-25T23:00:46.428Z,-1.6
2023-01-25T23:03:28.661Z,-1.6
2023-01-25T23:06:31.860Z,-1.6
2023-01-25T23:09:29.098Z,-1.6
2023-01-25T23:12:29.165Z,-1.6
2023-01-25T23:15:29.442Z,-1.6
2023-01-25T23:18:31.840Z,-1.6
2023-01-25T23:21:29.487Z,-1.6
2023-01-25T23:24:28.805Z,-1.6
2023-01-25T23:27:32.372Z,-1.6
2023-01-25T23:30:44.255Z,-1.6
2023-01-25T23:33:28.549Z,-1.6
2023-01-25T23:36:31.349Z,-1.6
2023-01-25T23:39:28.718Z,-1.6
2023-01-25T23:42:28.790Z,-1.6
2023-01-25T23:45:31.113Z,-1.6
2023-01-25T23:48:28.735Z,-1.6
2023-01-25T23:51:30.386Z,-1.6
2023-01-25T23:54:28.306Z,-1.6
2023-01-25T23:57:31.252Z,-1.6
